Time;durP1;ratioP1;P1;durP2;ratioP2;P2;SDS_P1;SDS_P2;PMS_P1;PMS_P2;Temp;Humidity;BMP_temperature;BMP_pressure;BME280_temperature;BME280_humidity;BME280_pressure;Samples;Min_cycle;Max_cycle;Signal;HPM_P1;HPM_P2
2022/03/01 00:01:19;;;;;;;;;39.33;35.00;;;;;6.76;55.42;102365.47;5077414;27;45645;-65
2022/03/01 00:03:44;;;;;;;;;34.67;30.33;;;;;6.91;55.50;102376.25;5077262;27;45253;-65
2022/03/01 00:06:09;;;;;;;;;36.00;30.67;;;;;6.79;55.44;102373.38;5077216;27;45614;-65
2022/03/01 00:08:35;;;;;;;;;39.33;34.67;;;;;6.76;55.49;102374.22;5076815;27;45480;-65
2022/03/01 00:11:00;;;;;;;;;35.67;34.00;;;;;6.84;55.51;102394.41;5077203;27;45422;-65
2022/03/01 00:13:26;;;;;;;;;45.33;37.00;;;;;6.84;55.69;102394.41;5077646;27;45305;-65
2022/03/01 00:15:51;;;;;;;;;45.00;35.33;;;;;6.76;55.59;102375.94;5077241;27;46623;-65
2022/03/01 00:18:16;;;;;;;;;42.00;31.00;;;;;6.85;55.41;102397.06;5076825;27;45438;-65
2022/03/01 00:20:42;;;;;;;;;38.33;29.67;;;;;6.66;55.50;102372.25;5077407;27;45216;-65
2022/03/01 00:23:07;;;;;;;;;39.00;30.33;;;;;6.62;55.39;102384.41;5077346;28;45376;-65
2022/03/01 00:25:33;;;;;;;;;37.33;33.00;;;;;6.72;56.39;102408.16;5077040;27;46234;-65
2022/03/01 00:27:58;;;;;;;;;42.67;34.00;;;;;6.60;56.43;102385.25;5077243;27;45244;-65
2022/03/01 00:30:23;;;;;;;;;42.00;36.00;;;;;6.49;56.41;102381.50;5077072;27;45214;-65
2022/03/01 00:32:49;;;;;;;;;45.67;38.33;;;;;6.51;56.62;102393.78;5079231;27;45467;-65
2022/03/01 00:35:15;;;;;;;;;46.00;35.67;;;;;6.47;56.99;102391.94;5080210;27;45261;-65
2022/03/01 00:37:40;;;;;;;;;54.00;39.00;;;;;6.50;56.87;102399.84;5080307;27;45403;-65
2022/03/01 00:40:06;;;;;;;;;44.00;34.67;;;;;6.44;57.08;102384.03;5080458;27;45671;-65
2022/03/01 00:42:32;;;;;;;;;46.33;34.67;;;;;6.43;57.23;102393.63;5080529;27;45359;-65
2022/03/01 00:44:57;;;;;;;;;39.33;34.33;;;;;6.40;57.54;102392.66;5080199;27;46359;-65
2022/03/01 00:47:22;;;;;;;;;48.00;35.33;;;;;6.36;57.83;102393.44;5080142;27;45428;-65
2022/03/01 00:49:48;;;;;;;;;48.00;35.67;;;;;6.33;58.00;102383.81;5080560;27;45350;-65
2022/03/01 00:52:13;;;;;;;;;38.67;33.00;;;;;6.39;57.84;102396.13;5080261;27;45484;-64
2022/03/01 00:54:39;;;;;;;;;45.67;36.67;;;;;6.35;58.14;102389.97;5080007;27;45598;-65
2022/03/01 00:57:04;;;;;;;;;36.33;32.00;;;;;6.37;57.82;102396.09;5080305;27;45342;-65
2022/03/01 00:59:29;;;;;;;;;43.00;36.00;;;;;6.37;58.11;102397.84;5080241;28;45382;-65
2022/03/01 01:01:55;;;;;;;;;36.33;33.00;;;;;6.45;58.13;102401.50;5080452;28;45273;-65
2022/03/01 01:04:20;;;;;;;;;40.00;34.00;;;;;6.38;57.76;102374.31;5079331;27;45591;-65
2022/03/01 01:06:45;;;;;;;;;36.33;32.00;;;;;6.34;57.35;102366.38;5080010;27;45337;-65
2022/03/01 01:09:13;;;;;;;;;32.67;29.33;;;;;6.46;57.76;102387.56;5080116;27;45642;-65
2022/03/01 01:11:39;;;;;;;;;36.67;34.00;;;;;6.47;57.37;102388.47;5080241;27;45272;-65
2022/03/01 01:14:04;;;;;;;;;41.67;33.33;;;;;6.52;57.62;102384.19;5079833;27;45495;-65
2022/03/01 01:16:30;;;;;;;;;41.00;34.33;;;;;6.51;57.52;102382.44;5079812;27;45351;-65
2022/03/01 01:18:55;;;;;;;;;41.33;32.67;;;;;6.45;58.04;102380.59;5079756;27;45379;-65
2022/03/01 01:21:21;;;;;;;;;40.33;35.33;;;;;6.49;57.53;102391.97;5079897;27;45447;-65
2022/03/01 01:23:47;;;;;;;;;39.33;34.00;;;;;6.54;57.70;102401.69;5079707;27;46169;-65
2022/03/01 01:26:13;;;;;;;;;34.33;31.67;;;;;6.48;57.72;102396.34;5079652;27;45489;-65
2022/03/01 01:28:38;;;;;;;;;33.00;30.33;;;;;6.48;57.53;102406.81;5079970;27;45257;-65
2022/03/01 01:31:04;;;;;;;;;34.67;30.00;;;;;6.34;58.41;102388.19;5079708;27;45320;-65
2022/03/01 01:33:29;;;;;;;;;42.67;36.67;;;;;6.44;58.44;102400.59;5079222;27;46303;-65
2022/03/01 01:35:55;;;;;;;;;41.00;34.00;;;;;6.43;58.12;102397.97;5079289;28;45494;-65
2022/03/01 01:38:20;;;;;;;;;45.67;38.33;;;;;6.50;58.27;102412.94;5079720;28;45308;-65
2022/03/01 01:40:46;;;;;;;;;38.33;36.67;;;;;6.43;58.20;102396.25;5079676;28;45315;-65
2022/03/01 01:43:11;;;;;;;;;53.33;38.67;;;;;6.52;58.13;102399.88;5078524;27;46030;-65
2022/03/01 01:45:37;;;;;;;;;46.67;34.67;;;;;6.55;58.07;102403.47;5079433;27;45368;-65
2022/03/01 01:48:03;;;;;;;;;46.33;36.33;;;;;6.58;58.14;102407.88;5079551;27;45367;-65
2022/03/01 01:50:31;;;;;;;;;42.67;37.00;;;;;6.52;58.34;102399.88;5079656;28;45356;-65
2022/03/01 01:52:56;;;;;;;;;51.33;35.33;;;;;6.45;58.29;102391.03;5079091;27;45249;-65
2022/03/01 01:55:24;;;;;;;;;40.67;34.33;;;;;6.54;58.46;102399.06;5078979;27;45490;-65
2022/03/01 01:57:49;;;;;;;;;45.67;36.00;;;;;6.47;58.21;102385.84;5079015;27;45463;-65
2022/03/01 02:00:16;;;;;;;;;45.67;35.33;;;;;6.48;58.34;102377.13;5078875;28;45506;-65
2022/03/01 02:02:42;;;;;;;;;37.33;34.33;;;;;6.51;58.00;102385.94;5074793;28;46612;-65
2022/03/01 02:05:08;;;;;;;;;50.67;38.67;;;;;6.53;58.22;102389.44;5078769;27;45240;-65
2022/03/01 02:07:34;;;;;;;;;45.67;38.33;;;;;6.54;58.45;102386.00;5077343;27;45391;-65
2022/03/01 02:10:00;;;;;;;;;41.67;35.67;;;;;6.23;58.26;102338.28;5078859;27;45307;-65
2022/03/01 02:12:26;;;;;;;;;40.33;34.67;;;;;6.50;58.71;102385.91;5078757;27;46044;-65
2022/03/01 02:14:51;;;;;;;;;47.33;32.33;;;;;6.34;58.10;102356.78;5078334;28;45261;-65
2022/03/01 02:17:18;;;;;;;;;46.00;34.00;;;;;6.37;58.43;102367.31;5078993;27;45391;-65
2022/03/01 02:19:53;;;;;;;;;39.67;35.00;;;;;6.38;58.34;102373.44;5078844;27;45366;-64
2022/03/01 02:22:18;;;;;;;;;39.00;33.00;;;;;6.52;58.28;102386.81;5078547;27;46437;-65
2022/03/01 02:24:44;;;;;;;;;42.33;33.67;;;;;6.55;58.18;102390.38;5078585;27;45468;-65
2022/03/01 02:27:10;;;;;;;;;43.00;35.67;;;;;6.39;57.99;102370.88;5078410;27;45300;-65
2022/03/01 02:29:35;;;;;;;;;40.33;34.67;;;;;6.37;58.18;102366.44;5078958;28;45385;-65
2022/03/01 02:32:04;;;;;;;;;38.67;31.67;;;;;6.36;57.99;102365.56;5078312;28;46212;-65
2022/03/01 02:34:30;;;;;;;;;31.33;31.00;;;;;6.41;58.27;102382.22;5078167;27;45407;-65
2022/03/01 02:36:55;;;;;;;;;41.67;34.67;;;;;6.41;58.95;102384.84;5078837;27;45348;-65
2022/03/01 02:39:21;;;;;;;;;43.00;35.67;;;;;6.38;58.64;102384.78;5078327;28;45183;-65
2022/03/01 02:41:47;;;;;;;;;41.33;36.33;;;;;6.31;58.96;102366.31;5077537;28;45679;-65
2022/03/01 02:44:13;;;;;;;;;42.33;32.67;;;;;6.36;58.69;102372.53;5077006;27;45444;-65
2022/03/01 02:46:40;;;;;;;;;41.33;29.67;;;;;6.51;58.81;102382.44;5077424;28;45490;-65
2022/03/01 02:49:07;;;;;;;;;46.00;38.00;;;;;6.48;58.67;102374.50;5077621;27;45468;-65
2022/03/01 02:51:33;;;;;;;;;44.33;36.67;;;;;6.52;57.86;102381.56;5077002;28;48012;-65
2022/03/01 02:53:59;;;;;;;;;44.67;35.00;;;;;6.51;59.45;102379.81;5076787;27;45428;-65
2022/03/01 02:56:24;;;;;;;;;41.33;36.00;;;;;6.50;58.87;102381.53;5077754;27;45354;-65
2022/03/01 02:58:50;;;;;;;;;52.67;38.00;;;;;6.50;57.97;102368.47;5078422;27;45332;-65
2022/03/01 03:01:15;;;;;;;;;42.33;35.33;;;;;6.42;58.56;102347.38;5077609;28;46549;-64
2022/03/01 03:03:41;;;;;;;;;46.00;35.67;;;;;6.40;58.64;102350.81;5078287;27;45362;-65
2022/03/01 03:06:06;;;;;;;;;35.67;31.00;;;;;6.52;58.33;102366.78;5078479;27;45324;-65
2022/03/01 03:08:32;;;;;;;;;34.67;33.00;;;;;6.58;58.12;102363.41;5078430;27;45588;-65
2022/03/01 03:10:58;;;;;;;;;43.00;35.67;;;;;6.65;57.68;102369.63;5077531;27;45425;-65
2022/03/01 03:13:24;;;;;;;;;41.00;31.00;;;;;6.76;56.93;102366.34;5077947;28;45411;-65
2022/03/01 03:15:49;;;;;;;;;40.00;36.33;;;;;6.71;57.72;102354.94;5077936;27;45354;-65
2022/03/01 03:18:15;;;;;;;;;36.00;35.67;;;;;6.66;57.50;102351.31;5078281;28;45421;-65
2022/03/01 03:20:40;;;;;;;;;39.33;35.00;;;;;6.56;57.63;102336.31;5077882;28;45469;-64
2022/03/01 03:23:06;;;;;;;;;40.67;33.67;;;;;6.64;58.58;102355.66;5077855;28;45424;-65
2022/03/01 03:25:32;;;;;;;;;32.67;29.67;;;;;6.58;57.79;102342.47;5077492;28;45690;-65
2022/03/01 03:27:57;;;;;;;;;37.00;33.00;;;;;6.68;57.82;102356.59;5078101;28;45385;-65
2022/03/01 03:30:23;;;;;;;;;50.00;35.33;;;;;6.62;58.20;102347.78;5077633;27;45935;-65
2022/03/01 03:32:48;;;;;;;;;53.00;36.00;;;;;6.64;57.78;102350.44;5077656;27;45439;-65
2022/03/01 03:35:14;;;;;;;;;29.67;25.67;;;;;6.74;57.03;102354.97;5077765;27;45281;-65
2022/03/01 03:37:39;;;;;;;;;39.00;33.67;;;;;6.74;57.53;102356.72;5078078;27;45391;-65
2022/03/01 03:40:05;;;;;;;;;41.00;34.33;;;;;6.75;57.98;102358.47;5074347;27;45798;-65
2022/03/01 03:42:30;;;;;;;;;37.33;36.00;;;;;6.72;58.23;102356.66;5076926;28;45364;-65
2022/03/01 03:44:56;;;;;;;;;37.33;29.00;;;;;6.66;57.87;102348.72;5077629;27;45223;-64
2022/03/01 03:47:22;;;;;;;;;55.67;39.33;;;;;6.65;58.31;102346.97;5077446;27;45345;-65
2022/03/01 03:49:47;;;;;;;;;51.00;37.33;;;;;6.60;58.34;102341.63;5077272;27;45382;-65
2022/03/01 03:52:13;;;;;;;;;36.00;34.67;;;;;6.63;58.67;102349.53;5077320;28;45397;-65
2022/03/01 03:54:38;;;;;;;;;37.00;32.00;;;;;6.67;57.72;102358.34;5077031;27;45404;-65
2022/03/01 03:57:08;;;;;;;;;41.00;35.00;;;;;6.59;58.02;102352.06;5077717;27;45546;-65
2022/03/01 03:59:35;;;;;;;;;43.67;32.67;;;;;6.57;58.81;102361.63;5077122;27;45654;-65
2022/03/01 04:02:02;;;;;;;;;42.00;36.33;;;;;6.48;59.23;102345.72;5077288;27;45349;-65
2022/03/01 04:04:28;;;;;;;;;37.33;29.67;;;;;6.27;59.24;102316.56;5077317;28;45312;-65
2022/03/01 04:06:53;;;;;;;;;39.67;33.67;;;;;6.49;58.90;102355.34;5079923;27;45312;-65
2022/03/01 04:09:18;;;;;;;;;32.67;26.67;;;;;6.45;58.90;102354.41;5080545;27;46398;-65
2022/03/01 04:11:44;;;;;;;;;44.00;38.00;;;;;6.48;59.10;102356.19;5080689;27;45533;-65
2022/03/01 04:14:09;;;;;;;;;39.00;34.33;;;;;6.37;59.75;102346.38;5081189;27;45580;-65
2022/03/01 04:16:34;;;;;;;;;47.67;35.67;;;;;6.31;59.76;102333.19;5080860;27;45394;-65
2022/03/01 04:19:00;;;;;;;;;38.00;34.33;;;;;6.37;59.08;102346.38;5080699;27;45336;-65
2022/03/01 04:21:27;;;;;;;;;51.67;35.67;;;;;6.43;59.33;102351.78;5080857;27;45375;-65
2022/03/01 04:23:52;;;;;;;;;42.67;35.33;;;;;6.48;59.45;102359.72;5080616;27;45257;-65
2022/03/01 04:26:18;;;;;;;;;42.67;34.67;;;;;6.34;59.89;102338.47;5080637;27;45585;-65
2022/03/01 04:28:44;;;;;;;;;41.67;35.33;;;;;6.48;59.65;102359.72;5080189;27;46381;-65
2022/03/01 04:31:09;;;;;;;;;40.33;33.00;;;;;6.43;59.29;102353.47;5080567;27;45726;-65
2022/03/01 04:33:35;;;;;;;;;47.67;36.33;;;;;6.43;59.50;102348.25;5080873;27;45343;-65
2022/03/01 04:36:02;;;;;;;;;42.67;30.33;;;;;6.42;59.37;102347.38;5080598;27;45361;-65
2022/03/01 04:38:29;;;;;;;;;44.33;33.00;;;;;6.43;59.24;102362.25;5080399;27;46398;-65
2022/03/01 04:40:55;;;;;;;;;41.00;33.33;;;;;6.48;59.47;102364.03;5080296;27;45379;-64
2022/03/01 04:43:21;;;;;;;;;46.67;34.67;;;;;6.31;59.23;102346.28;5079859;28;45416;-65
2022/03/01 04:45:47;;;;;;;;;38.33;35.00;;;;;6.43;60.08;102369.19;5080321;27;45378;-65
2022/03/01 04:48:12;;;;;;;;;46.67;35.67;;;;;6.48;59.78;102362.31;5080157;28;45396;-65
2022/03/01 04:50:38;;;;;;;;;47.00;35.67;;;;;6.42;59.62;102359.59;5080307;27;45245;-65
2022/03/01 04:53:04;;;;;;;;;43.00;33.33;;;;;6.46;59.09;102371.84;5080416;27;45361;-65
2022/03/01 04:55:29;;;;;;;;;46.33;34.00;;;;;6.32;59.13;102345.44;5080408;28;45694;-65
2022/03/01 04:57:55;;;;;;;;;38.67;34.00;;;;;6.45;59.04;102362.25;5080163;27;46679;-65
2022/03/01 05:00:21;;;;;;;;;42.67;33.33;;;;;6.37;59.49;102345.53;5080398;27;45327;-65
2022/03/01 05:02:47;;;;;;;;;43.67;31.00;;;;;6.42;60.00;102350.00;5060039;28;45190;-65
2022/03/01 05:05:14;;;;;;;;;40.00;36.33;;;;;6.44;59.91;102348.28;5059881;28;45329;-65
2022/03/01 05:07:49;;;;;;;;;38.67;34.00;;;;;6.37;59.55;102335.06;5069920;28;46584;-65
2022/03/01 05:10:17;;;;;;;;;49.33;35.33;;;;;6.48;59.63;102346.63;5079344;27;45497;-63
2022/03/01 05:12:49;;;;;;;;;40.00;34.00;;;;;6.52;59.03;102356.31;5079451;27;45208;-65
2022/03/01 05:15:15;;;;;;;;;47.67;36.00;;;;;6.55;59.62;102351.13;5079550;28;45320;-65
2022/03/01 05:17:41;;;;;;;;;41.00;33.67;;;;;6.58;59.12;102359.03;5078862;27;46186;-65
2022/03/01 05:20:08;;;;;;;;;41.67;28.67;;;;;6.47;59.11;102331.78;5079421;27;45575;-67
2022/03/01 05:22:34;;;;;;;;;37.00;34.33;;;;;6.60;58.41;102357.31;5079826;27;45344;-66
2022/03/01 05:25:01;;;;;;;;;39.00;36.00;;;;;6.50;58.71;102337.06;5079404;27;46284;-66
2022/03/01 05:27:28;;;;;;;;;37.67;31.67;;;;;6.58;58.09;102348.56;5079317;27;47545;-66
2022/03/01 05:29:54;;;;;;;;;37.00;28.50;;;;;6.52;58.21;102340.59;5079353;27;45461;-66
2022/03/01 05:32:19;;;;;;;;;39.00;35.33;;;;;6.42;59.01;102330.81;5079759;27;45368;-66
2022/03/01 05:34:44;;;;;;;;;41.33;31.00;;;;;6.41;58.65;102332.53;5079853;27;45434;-66
2022/03/01 05:37:10;;;;;;;;;45.33;32.00;;;;;6.55;58.60;102353.75;5078721;27;45524;-65
2022/03/01 05:39:36;;;;;;;;;33.00;30.00;;;;;6.44;58.52;102329.97;5079450;27;45453;-65
2022/03/01 05:42:01;;;;;;;;;32.67;30.00;;;;;6.54;58.42;102343.25;5078866;27;45327;-65
2022/03/01 05:44:27;;;;;;;;;47.67;37.00;;;;;6.44;58.71;102329.97;5079477;27;45358;-66
2022/03/01 05:46:52;;;;;;;;;37.33;32.67;;;;;6.55;58.66;102358.97;5078902;28;46464;-66
2022/03/01 05:49:18;;;;;;;;;37.33;32.33;;;;;6.55;58.21;102350.22;5081717;27;45494;-66
2022/03/01 05:51:43;;;;;;;;;41.33;32.33;;;;;6.51;58.43;102351.03;5078688;27;45485;-64
2022/03/01 05:54:08;;;;;;;;;39.33;32.67;;;;;6.45;58.36;102339.59;5079249;27;45171;-64
2022/03/01 05:56:34;;;;;;;;;39.67;30.33;;;;;6.48;58.70;102340.50;5078685;28;45628;-64
2022/03/01 05:58:59;;;;;;;;;39.33;35.67;;;;;6.54;58.80;102351.97;5079406;28;45347;-64
2022/03/01 06:01:24;;;;;;;;;37.00;30.67;;;;;6.55;58.36;102343.28;5089987;27;45467;-64
2022/03/01 06:03:50;;;;;;;;;40.00;30.33;;;;;6.56;58.66;102341.53;5099846;27;45179;-64
2022/03/01 06:06:15;;;;;;;;;35.67;32.33;;;;;6.63;58.80;102356.50;5082864;27;46136;-65
2022/03/01 06:08:41;;;;;;;;;38.00;34.33;;;;;6.63;57.96;102357.38;5078869;27;45304;-65
2022/03/01 06:11:06;;;;;;;;;37.67;35.33;;;;;6.45;58.75;102329.13;5079037;27;45457;-64
2022/03/01 06:13:32;;;;;;;;;38.67;32.33;;;;;6.66;58.07;102353.06;5078960;27;45450;-65
2022/03/01 06:16:00;;;;;;;;;45.33;34.67;;;;;6.66;58.13;102343.47;5079166;27;45583;-65
2022/03/01 06:18:26;;;;;;;;;37.00;32.33;;;;;6.63;58.17;102333.81;5078732;28;45356;-64
2022/03/01 06:20:52;;;;;;;;;35.00;32.00;;;;;6.41;58.34;102292.41;5078924;27;45315;-64
2022/03/01 06:23:17;;;;;;;;;37.00;34.67;;;;;6.62;58.05;102337.31;5078849;27;45384;-64
2022/03/01 06:25:44;;;;;;;;;39.67;33.33;;;;;6.52;58.29;102324.91;5078316;27;46522;-64
2022/03/01 06:28:09;;;;;;;;;44.00;35.33;;;;;6.53;58.24;102324.03;5078812;27;45478;-64
2022/03/01 06:30:36;;;;;;;;;52.00;36.00;;;;;6.63;58.92;102331.19;5078771;28;45278;-64
2022/03/01 06:33:02;;;;;;;;;42.67;36.67;;;;;6.70;59.01;102340.06;5078939;27;45597;-64
2022/03/01 06:35:27;;;;;;;;;43.33;35.67;;;;;6.64;59.03;102345.19;5078502;27;46353;-65
2022/03/01 06:37:54;;;;;;;;;51.33;37.33;;;;;6.74;58.78;102354.13;5078893;28;45387;-64
2022/03/01 06:40:19;;;;;;;;;43.33;35.00;;;;;6.72;58.66;102346.19;5094245;27;45496;-65
2022/03/01 06:42:47;;;;;;;;;47.00;34.67;;;;;6.70;59.07;102357.53;5078458;27;45304;-64
2022/03/01 06:45:12;;;;;;;;;46.67;36.33;;;;;6.75;59.16;102355.84;5078133;27;45492;-64
2022/03/01 06:47:38;;;;;;;;;49.00;37.67;;;;;6.76;59.23;102368.97;5078189;28;45225;-65
2022/03/01 06:50:04;;;;;;;;;48.00;39.33;;;;;6.78;59.13;102369.00;5078700;28;45232;-65
2022/03/01 06:52:31;;;;;;;;;42.67;36.33;;;;;6.63;59.93;102353.88;5078601;27;45483;-64
2022/03/01 06:54:56;;;;;;;;;37.33;31.00;;;;;6.71;60.62;102367.13;5077975;27;46684;-65
2022/03/01 06:57:21;;;;;;;;;49.33;36.33;;;;;6.77;60.27;102362.88;5076621;28;45978;-65
2022/03/01 06:59:47;;;;;;;;;35.67;32.00;;;;;6.76;60.41;102366.34;5074556;28;45561;-65
2022/03/01 07:02:12;;;;;;;;;30.33;27.00;;;;;6.84;60.71;102386.56;5077978;28;45308;-65
2022/03/01 07:04:38;;;;;;;;;45.00;35.33;;;;;6.77;62.60;102378.59;5078000;27;45619;-65
2022/03/01 07:07:05;;;;;;;;;40.33;35.67;;;;;6.88;61.89;102396.25;5077875;27;45474;-65
2022/03/01 07:09:30;;;;;;;;;46.00;36.33;;;;;6.85;60.35;102383.97;5076585;27;45416;-65
2022/03/01 07:11:56;;;;;;;;;43.00;35.00;;;;;6.91;60.55;102393.69;5078247;27;45324;-65
2022/03/01 07:14:21;;;;;;;;;43.67;35.33;;;;;6.90;62.20;102398.06;5077591;28;46008;-65
2022/03/01 07:16:46;;;;;;;;;42.00;31.00;;;;;6.78;61.97;102375.13;5078077;27;45433;-65
2022/03/01 07:19:12;;;;;;;;;46.33;35.00;;;;;6.92;63.69;102409.41;5077905;28;45710;-65
2022/03/01 07:21:37;;;;;;;;;43.67;35.00;;;;;6.79;63.62;102384.72;5076825;28;45585;-65
2022/03/01 07:24:03;;;;;;;;;35.00;29.00;;;;;6.89;62.13;102393.66;5077672;27;47167;-65
2022/03/01 07:26:28;;;;;;;;;52.33;39.00;;;;;6.89;63.75;102392.78;5077642;27;45183;-65
2022/03/01 07:28:54;;;;;;;;;55.00;42.33;;;;;6.77;64.09;102375.97;5077616;27;45329;-64
2022/03/01 07:31:20;;;;;;;;;47.00;38.67;;;;;6.53;64.84;102334.50;5078055;27;45383;-65
2022/03/01 07:33:45;;;;;;;;;46.00;37.67;;;;;6.84;64.77;102386.56;5077251;27;45493;-65
2022/03/01 07:36:11;;;;;;;;;39.00;34.00;;;;;6.73;63.79;102362.81;5076985;27;45410;-65
2022/03/01 07:38:36;;;;;;;;;38.00;34.33;;;;;6.60;64.35;102339.00;5077658;27;45383;-64
2022/03/01 07:41:02;;;;;;;;;58.67;47.33;;;;;6.90;62.70;102378.84;5076878;28;45267;-65
2022/03/01 07:43:27;;;;;;;;;52.33;41.33;;;;;6.97;63.31;102394.69;5077050;27;46383;-65
2022/03/01 07:45:52;;;;;;;;;52.00;39.33;;;;;6.89;65.10;102371.84;5076003;28;45493;-65
2022/03/01 07:48:18;;;;;;;;;45.00;35.33;;;;;6.90;65.02;102369.25;5077328;27;45314;-65
2022/03/01 07:50:43;;;;;;;;;38.00;35.00;;;;;7.09;65.52;102390.53;5077508;27;45437;-64
2022/03/01 07:53:09;;;;;;;;;47.67;37.33;;;;;7.13;64.94;102393.25;5076975;27;45582;-65
2022/03/01 07:55:35;;;;;;;;;53.67;41.00;;;;;7.07;64.29;102377.44;5077084;27;45396;-65
2022/03/01 07:58:00;;;;;;;;;44.00;38.33;;;;;7.20;64.03;102399.44;5077040;28;45895;-65
2022/03/01 08:00:26;;;;;;;;;47.67;36.33;;;;;7.26;64.02;102404.81;5077437;27;45380;-65
2022/03/01 08:02:52;;;;;;;;;48.00;40.00;;;;;7.17;63.85;102383.69;5077240;28;45463;-65
2022/03/01 08:05:18;;;;;;;;;45.00;36.00;;;;;7.36;63.48;102399.72;5076743;27;45508;-65
2022/03/01 08:07:44;;;;;;;;;36.67;34.33;;;;;7.10;63.54;102348.66;5077271;27;45292;-65
2022/03/01 08:10:09;;;;;;;;;40.33;35.00;;;;;7.41;62.47;102404.22;5077225;27;45221;-65
2022/03/01 08:12:35;;;;;;;;;44.00;37.00;;;;;7.40;63.46;102401.56;5076638;27;46671;-65
2022/03/01 08:15:00;;;;;;;;;41.00;35.33;;;;;7.41;63.13;102392.84;5076776;28;45276;-65
2022/03/01 08:17:25;;;;;;;;;43.00;34.33;;;;;7.43;62.44;102385.88;5077198;27;45345;-65
2022/03/01 08:19:51;;;;;;;;;40.67;34.67;;;;;7.42;62.65;102371.91;5077225;28;45370;-65
2022/03/01 08:22:16;;;;;;;;;32.67;31.00;;;;;7.58;62.76;102390.47;5076905;28;46271;-64
2022/03/01 08:24:41;;;;;;;;;37.33;33.00;;;;;7.55;62.03;102386.09;5076693;28;45321;-65
2022/03/01 08:27:07;;;;;;;;;42.33;33.00;;;;;7.57;62.30;102373.03;5077389;27;45336;-64
2022/03/01 08:29:34;;;;;;;;;41.00;33.67;;;;;7.69;62.84;102401.16;5077044;28;45415;-64
2022/03/01 08:31:59;;;;;;;;;45.00;37.00;;;;;7.73;63.54;102397.75;5076448;27;45511;-64
2022/03/01 08:34:25;;;;;;;;;44.00;38.00;;;;;7.83;63.99;102412.75;5076043;27;45593;-64
2022/03/01 08:36:50;;;;;;;;;36.33;33.00;;;;;7.70;63.38;102389.78;5076845;27;45384;-64
2022/03/01 08:39:15;;;;;;;;;41.00;34.67;;;;;7.68;64.02;102387.16;5081379;27;45527;-64
2022/03/01 08:41:41;;;;;;;;;45.67;36.67;;;;;7.77;63.88;102404.75;5076721;27;46022;-64
2022/03/01 08:44:07;;;;;;;;;36.33;34.00;;;;;7.85;63.54;102413.66;5077598;27;45523;-64
2022/03/01 08:46:32;;;;;;;;;46.33;33.67;;;;;7.82;62.95;102413.59;5088006;27;45362;-64
2022/03/01 08:48:58;;;;;;;;;41.67;35.33;;;;;7.61;62.67;102374.81;5077004;27;45305;-64
2022/03/01 08:51:25;;;;;;;;;47.00;37.33;;;;;7.87;62.94;102414.56;5076445;28;46509;-64
2022/03/01 08:53:52;;;;;;;;;34.33;31.00;;;;;7.87;62.90;102404.09;5078471;27;45261;-64
2022/03/01 08:56:17;;;;;;;;;43.67;34.33;;;;;7.93;62.69;102406.78;5079813;27;45293;-64
2022/03/01 08:58:44;;;;;;;;;46.33;35.67;;;;;7.89;63.67;102409.34;5080115;27;45537;-64
2022/03/01 09:01:10;;;;;;;;;41.33;35.00;;;;;7.83;63.95;102394.41;5079778;28;46662;-64
2022/03/01 09:03:36;;;;;;;;;42.67;36.00;;;;;7.82;62.28;102382.13;5079875;27;45407;-64
2022/03/01 09:06:05;;;;;;;;;34.67;32.00;;;;;7.75;63.67;102362.78;5080081;27;45510;-64
2022/03/01 09:08:34;;;;;;;;;44.00;32.67;;;;;8.07;62.19;102419.22;5080060;27;45317;-64
2022/03/01 09:10:59;;;;;;;;;40.00;34.33;;;;;8.05;62.63;102418.31;5079501;27;46165;-64
2022/03/01 09:13:25;;;;;;;;;44.33;32.00;;;;;8.09;62.45;102425.34;5078634;27;45439;-64
2022/03/01 09:15:50;;;;;;;;;58.67;43.33;;;;;7.96;62.49;102395.47;5079008;27;45472;-64
2022/03/01 09:18:16;;;;;;;;;37.00;28.33;;;;;8.04;62.27;102413.94;5078414;27;45550;-64
2022/03/01 09:20:41;;;;;;;;;54.00;39.67;;;;;8.13;62.91;102429.78;5079842;27;47163;-64
2022/03/01 09:23:06;;;;;;;;;45.33;34.67;;;;;8.21;62.47;102440.44;5077741;27;45420;-64
2022/03/01 09:25:32;;;;;;;;;40.00;33.67;;;;;8.20;61.88;102442.16;5070952;27;45650;-64
2022/03/01 09:27:58;;;;;;;;;38.67;34.33;;;;;8.14;61.86;102434.19;5078904;28;45414;-65
2022/03/01 09:30:24;;;;;;;;;36.33;33.67;;;;;8.15;61.59;102433.34;5077861;27;45474;-64
2022/03/01 09:32:49;;;;;;;;;102.50;95.75;;;;;8.13;61.89;102424.53;5078294;27;45363;-64
2022/03/01 09:35:14;;;;;;;;;43.00;34.33;;;;;8.11;61.88;102432.41;5077978;27;45439;-65
2022/03/01 09:37:41;;;;;;;;;39.67;34.00;;;;;8.18;62.03;102441.25;5078922;27;45359;-65
2022/03/01 09:40:08;;;;;;;;;47.50;37.00;;;;;8.19;61.53;102446.53;5078184;27;46559;-64
2022/03/01 09:42:33;;;;;;;;;42.33;36.33;;;;;8.09;61.16;102434.13;5078036;27;45388;-66
2022/03/01 09:45:00;;;;;;;;;44.00;36.67;;;;;8.14;61.29;102442.94;5078300;27;45533;-66
2022/03/01 09:47:26;;;;;;;;;49.67;38.00;;;;;8.23;62.05;102455.31;5078382;27;45380;-66
2022/03/01 09:49:52;;;;;;;;;45.67;34.00;;;;;8.17;61.48;102432.47;5078055;27;45811;-66
2022/03/01 09:52:19;;;;;;;;;37.67;33.33;;;;;8.34;61.57;102443.22;5078332;27;45427;-66
2022/03/01 09:54:45;;;;;;;;;38.33;34.00;;;;;8.39;61.22;102439.78;5078118;27;45347;-66
2022/03/01 09:57:14;;;;;;;;;35.67;29.67;;;;;8.44;61.44;102440.75;5078594;28;45480;-66
2022/03/01 09:59:39;;;;;;;;;38.00;32.00;;;;;8.39;61.41;102422.28;5078127;27;45459;-64
2022/03/01 10:02:05;;;;;;;;;42.67;34.33;;;;;8.52;60.50;102441.75;5078245;27;45428;-65
2022/03/01 10:04:30;;;;;;;;;34.33;33.00;;;;;8.68;60.86;102450.69;5077890;28;46321;-65
2022/03/01 10:06:56;;;;;;;;;42.33;34.67;;;;;8.71;61.21;102421.84;5078594;27;45496;-65
2022/03/01 10:09:23;;;;;;;;;37.33;32.33;;;;;8.88;60.24;102437.81;5078132;27;46612;-65
2022/03/01 10:11:50;;;;;;;;;50.00;37.67;;;;;8.99;59.84;102453.69;5078481;27;45378;-65
2022/03/01 10:14:27;;;;;;;;;37.00;32.67;;;;;9.04;59.76;102452.00;5077976;27;45396;-65
2022/03/01 10:16:53;;;;;;;;;34.33;31.00;;;;;9.02;59.01;102448.50;5078439;27;45483;-66
2022/03/01 10:19:20;;;;;;;;;35.00;30.00;;;;;9.00;58.14;102455.47;5078037;28;46036;-66
2022/03/01 10:22:16;;;;;;;;;32.33;31.00;;;;;9.01;58.42;102451.97;5077884;27;45448;-66
2022/03/01 10:24:48;;;;;;;;;42.33;34.33;;;;;9.06;59.30;102437.13;5015606;28;45596;-67
2022/03/01 10:27:13;;;;;;;;;34.67;30.00;;;;;9.06;57.79;102440.66;5015764;28;45603;-66
2022/03/01 10:29:46;;;;;;;;;37.33;31.67;;;;;8.99;58.46;102417.81;5015263;28;46062;-64
2022/03/01 10:32:12;;;;;;;;;40.67;30.33;;;;;9.15;57.67;102444.22;5015503;28;45569;-65
2022/03/01 10:34:38;;;;;;;;;34.67;27.67;;;;;9.20;57.96;102432.03;5015294;28;45418;-64
2022/03/01 10:37:03;;;;;;;;;35.00;32.00;;;;;9.32;57.82;102426.00;5015476;28;45475;-65
2022/03/01 10:39:31;;;;;;;;;32.00;29.00;;;;;9.41;58.03;102426.13;5015374;28;45460;-66
2022/03/01 10:41:57;;;;;;;;;37.00;32.67;;;;;9.40;56.75;102401.56;5015193;28;45487;-64
2022/03/01 10:44:28;;;;;;;;;46.00;37.67;;;;;9.71;57.07;102430.72;5015280;28;45479;-66
2022/03/01 10:46:55;;;;;;;;;34.67;30.00;;;;;9.86;57.21;102434.34;5015359;28;45959;-66
2022/03/01 10:49:32;;;;;;;;;34.33;30.00;;;;;9.93;56.05;102434.44;5012488;28;45951;-63
2022/03/01 10:52:05;;;;;;;;;36.33;29.00;;;;;10.03;56.60;102435.34;5009972;28;45502;-64
2022/03/01 10:54:41;;;;;;;;;37.33;32.33;;;;;10.05;55.98;102407.31;5013503;28;45391;-63
2022/03/01 10:57:10;;;;;;;;;43.00;36.00;;;;;10.34;56.43;102424.16;5015448;28;45473;-63
2022/03/01 10:59:39;;;;;;;;;40.67;31.00;;;;;10.32;54.36;102402.19;5015030;28;45346;-64
2022/03/01 11:02:06;;;;;;;;;36.33;31.33;;;;;10.45;54.59;102423.34;5071287;28;45448;-64
2022/03/01 11:04:32;;;;;;;;;38.67;31.00;;;;;10.52;54.99;102397.06;5077763;28;45442;-64
2022/03/01 11:07:02;;;;;;;;;36.67;31.67;;;;;10.65;54.63;102397.97;5077535;27;45339;-62
2022/03/01 11:09:30;;;;;;;;;34.67;30.00;;;;;10.84;54.38;102410.31;5076988;27;46608;-64
2022/03/01 11:11:57;;;;;;;;;33.00;26.67;;;;;10.93;53.87;102417.38;5077229;27;45432;-65